createdAt,value
2022-09-04T00:00:09.095Z,2.60
2022-09-04T00:03:16.968Z,2.80
2022-09-04T00:05:51.992Z,2.90
2022-09-04T00:08:36.825Z,3.00
2022-09-04T00:11:14.018Z,2.90
2022-09-04T00:13:49.088Z,2.50
2022-09-04T00:16:21.912Z,3.20
2022-09-04T00:19:02.447Z,2.80
2022-09-04T00:21:39.024Z,2.70
2022-09-04T00:24:12.904Z,2.80
2022-09-04T00:26:53.836Z,2.90
2022-09-04T00:29:30.383Z,2.80
2022-09-04T00:32:08.184Z,4.30
2022-09-04T00:34:55.848Z,2.90
2022-09-04T00:37:30.690Z,3.00
2022-09-04T00:40:06.562Z,2.90
2022-09-04T00:42:54.897Z,3.10
2022-09-04T00:45:50.993Z,2.80
2022-09-04T00:48:48.531Z,2.70
2022-09-04T00:51:30.485Z,2.80
2022-09-04T00:54:37.449Z,2.60
2022-09-04T00:57:34.846Z,2.90
2022-09-04T01:03:25.283Z,3.00
2022-09-04T01:06:13.474Z,2.80
2022-09-04T01:09:02.908Z,2.70
2022-09-04T01:11:40.571Z,2.50
2022-09-04T01:14:19.357Z,2.80
2022-09-04T01:16:55.486Z,2.60
2022-09-04T01:19:49.892Z,2.50
2022-09-04T01:22:52.908Z,3.00
2022-09-04T01:25:34.850Z,2.60
2022-09-04T01:28:09.733Z,2.40
2022-09-04T01:31:02.224Z,2.90
2022-09-04T01:33:40.461Z,2.70
2022-09-04T01:38:51.126Z,2.30
2022-09-04T01:41:26.297Z,2.40
2022-09-04T01:43:55.936Z,2.40
2022-09-04T01:46:51.842Z,2.20
2022-09-04T01:49:34.661Z,2.70
2022-09-04T01:52:32.856Z,2.40
2022-09-04T01:55:13.746Z,3.00
2022-09-04T01:57:55.077Z,2.60
2022-09-04T02:00:25.156Z,2.40
2022-09-04T02:03:02.275Z,2.60
2022-09-04T02:05:42.451Z,2.30
2022-09-04T02:08:30.025Z,2.60
2022-09-04T02:11:08.317Z,2.40
2022-09-04T02:13:51.078Z,2.30
2022-09-04T02:16:30.551Z,2.50
2022-09-04T02:19:07.617Z,2.80
2022-09-04T02:21:44.790Z,2.50
2022-09-04T02:24:23.171Z,2.40
2022-09-04T02:27:00.551Z,2.70
2022-09-04T02:29:39.931Z,2.50
2022-09-04T02:32:18.784Z,2.50
2022-09-04T02:34:55.887Z,2.50
2022-09-04T02:37:33.838Z,2.40
2022-09-04T02:40:18.136Z,2.50
2022-09-04T02:43:05.519Z,2.40
2022-09-04T02:45:44.758Z,2.30
2022-09-04T02:48:23.163Z,2.50
2022-09-04T02:51:06.774Z,2.90
2022-09-04T02:53:41.831Z,3.40
2022-09-04T02:56:31.395Z,3.30
2022-09-04T02:59:23.392Z,3.00
2022-09-04T03:01:59.169Z,2.90
2022-09-04T03:04:38.479Z,2.70
2022-09-04T03:07:13.950Z,2.90
2022-09-04T03:09:48.519Z,2.70
2022-09-04T03:12:31.612Z,2.90
2022-09-04T03:15:09.311Z,2.70
2022-09-04T03:17:48.202Z,3.20
2022-09-04T03:20:23.687Z,2.80
2022-09-04T03:22:58.730Z,2.60
2022-09-04T03:25:43.015Z,2.70
2022-09-04T03:28:20.791Z,2.70
2022-09-04T03:30:54.813Z,3.00
2022-09-04T03:33:32.774Z,2.80
2022-09-04T03:36:09.166Z,2.90
2022-09-04T03:38:53.391Z,2.70
2022-09-04T03:41:33.516Z,2.80
2022-09-04T03:44:16.092Z,3.00
2022-09-04T03:46:57.820Z,2.40
2022-09-04T03:49:43.633Z,2.80
2022-09-04T03:52:22.038Z,2.60
2022-09-04T03:57:48.889Z,2.90
2022-09-04T04:00:20.331Z,2.60
2022-09-04T04:03:11.505Z,2.70
2022-09-04T04:05:54.015Z,2.80
2022-09-04T04:08:36.124Z,3.20
2022-09-04T04:11:21.551Z,2.80
2022-09-04T04:14:15.333Z,3.00
2022-09-04T04:16:56.937Z,3.00
2022-09-04T04:19:53.195Z,3.00
2022-09-04T04:22:55.525Z,2.90
2022-09-04T04:25:48.827Z,3.10
2022-09-04T04:28:37.998Z,2.90
2022-09-04T04:31:20.028Z,3.20
2022-09-04T04:33:58.833Z,3.00
2022-09-04T04:36:36.921Z,2.70
2022-09-04T04:39:19.497Z,2.90
2022-09-04T04:42:05.901Z,3.30
2022-09-04T04:45:10.308Z,3.00
2022-09-04T04:48:18.486Z,3.40
2022-09-04T04:50:59.295Z,3.30
2022-09-04T04:53:36.124Z,3.30
2022-09-04T04:56:13.811Z,3.30
2022-09-04T04:59:03.146Z,3.40
2022-09-04T05:01:42.834Z,3.20
2022-09-04T05:04:20.330Z,3.40
2022-09-04T05:06:55.120Z,3.20
2022-09-04T05:09:35.541Z,3.70
2022-09-04T05:12:16.850Z,3.40
2022-09-04T05:14:54.949Z,3.70
2022-09-04T05:17:34.058Z,3.30
2022-09-04T05:20:27.076Z,3.50
2022-09-04T05:23:07.224Z,3.80
2022-09-04T05:25:47.925Z,3.40
2022-09-04T05:28:26.690Z,3.30
2022-09-04T05:31:09.652Z,3.30
2022-09-04T05:33:49.767Z,3.40
2022-09-04T05:36:25.884Z,3.50
2022-09-04T05:39:03.613Z,3.40
2022-09-04T05:41:41.455Z,3.50
2022-09-04T05:44:22.388Z,3.70
2022-09-04T05:47:05.489Z,3.20
2022-09-04T05:49:58.977Z,3.30
2022-09-04T05:52:46.443Z,3.40
2022-09-04T05:55:35.671Z,3.70
2022-09-04T05:58:18.627Z,3.90
2022-09-04T06:00:55.628Z,3.50
2022-09-04T06:03:48.143Z,3.50
2022-09-04T06:06:26.967Z,3.30
2022-09-04T06:09:18.673Z,1.80
2022-09-04T06:12:10.919Z,1.40
2022-09-04T06:14:59.151Z,2.00
2022-09-04T06:17:46.929Z,1.80
2022-09-04T06:20:37.632Z,1.70
2022-09-04T06:23:50.975Z,1.80
2022-09-04T06:26:34.706Z,2.30
2022-09-04T06:29:25.234Z,2.80
2022-09-04T06:32:17.891Z,1.60
2022-09-04T06:35:26.438Z,1.70
2022-09-04T06:38:25.670Z,1.80
2022-09-04T06:41:18.784Z,1.90
2022-09-04T06:43:58.555Z,1.70
2022-09-04T06:46:38.320Z,1.60
2022-09-04T06:49:13.913Z,1.70
2022-09-04T06:51:53.736Z,1.60
2022-09-04T06:54:33.633Z,1.90
2022-09-04T06:57:17.373Z,1.70
2022-09-04T06:59:59.177Z,1.60
2022-09-04T07:02:47.906Z,2.00
2022-09-04T07:07:59.249Z,2.00
2022-09-04T07:10:33.413Z,1.90
2022-09-04T07:13:41.966Z,2.40
2022-09-04T07:16:20.287Z,3.20
2022-09-04T07:19:18.419Z,2.20
2022-09-04T07:24:46.638Z,3.60
2022-09-04T07:27:24.643Z,3.80
2022-09-04T07:30:00.606Z,3.80
2022-09-04T07:32:38.246Z,3.70
2022-09-04T07:35:13.321Z,4.20
2022-09-04T07:37:50.235Z,3.80
2022-09-04T07:40:24.273Z,4.80
2022-09-04T07:45:34.485Z,3.70
2022-09-04T07:48:18.339Z,3.70
2022-09-04T07:51:03.242Z,4.00
2022-09-04T07:53:54.936Z,3.60
2022-09-04T07:56:37.697Z,3.90
2022-09-04T07:59:30.789Z,4.20
2022-09-04T08:02:16.670Z,4.00
2022-09-04T08:05:07.822Z,4.00
2022-09-04T08:08:06.812Z,3.90
2022-09-04T08:10:43.287Z,3.70
2022-09-04T08:13:27.121Z,4.10
2022-09-04T08:16:07.549Z,4.20
2022-09-04T08:18:52.793Z,3.80
2022-09-04T08:21:27.995Z,4.00
2022-09-04T08:24:29.352Z,3.90
2022-09-04T08:27:10.818Z,3.80
2022-09-04T08:30:02.713Z,3.90
2022-09-04T08:33:08.529Z,4.10
2022-09-04T08:35:47.590Z,3.60
2022-09-04T08:38:40.736Z,4.20
2022-09-04T08:41:48.107Z,4.00
2022-09-04T08:44:38.633Z,4.30
2022-09-04T08:47:51.318Z,4.70
2022-09-04T08:50:51.202Z,3.90
2022-09-04T08:56:21.640Z,4.50
2022-09-04T08:59:31.245Z,5.00
2022-09-04T09:02:29.192Z,4.30
2022-09-04T09:05:30.809Z,4.30
2022-09-04T09:08:29.730Z,4.30
2022-09-04T09:11:34.957Z,4.30
2022-09-04T09:14:43.982Z,4.20
2022-09-04T09:17:16.559Z,4.20
2022-09-04T09:19:58.688Z,4.30
2022-09-04T09:22:48.448Z,4.90
2022-09-04T09:25:20.404Z,4.20
2022-09-04T09:28:31.181Z,4.50
2022-09-04T09:31:37.534Z,4.70
2022-09-04T09:34:45.762Z,4.30
2022-09-04T09:38:04.355Z,4.40
2022-09-04T09:41:28.306Z,4.00
2022-09-04T09:44:34.941Z,4.20
2022-09-04T09:47:43.204Z,4.30
2022-09-04T09:50:49.156Z,3.90
2022-09-04T09:53:48.912Z,5.10
2022-09-04T09:56:58.375Z,4.40
2022-09-04T10:00:06.887Z,4.20
2022-09-04T10:03:26.830Z,4.30
2022-09-04T10:06:41.186Z,4.30
2022-09-04T10:09:40.545Z,4.50
2022-09-04T10:12:44.168Z,4.20
2022-09-04T10:15:47.780Z,4.50
2022-09-04T10:18:36.780Z,4.20
2022-09-04T10:21:29.555Z,4.80
2022-09-04T10:24:21.571Z,4.50
2022-09-04T10:27:25.258Z,4.50
2022-09-04T10:30:16.557Z,4.10
2022-09-04T10:33:23.227Z,5.10
2022-09-04T10:36:19.197Z,4.60
2022-09-04T10:39:23.493Z,4.30
2022-09-04T10:42:08.453Z,4.40
2022-09-04T10:45:03.290Z,4.50
2022-09-04T10:47:58.514Z,4.50
2022-09-04T10:50:43.546Z,4.30
2022-09-04T10:53:38.471Z,4.20
2022-09-04T10:56:18.348Z,4.10
2022-09-04T10:59:24.302Z,4.00
2022-09-04T11:02:32.564Z,4.10
2022-09-04T11:05:19.875Z,4.00
2022-09-04T11:08:13.188Z,4.10
2022-09-04T11:10:58.384Z,4.10
2022-09-04T11:14:05.596Z,4.50
2022-09-04T11:17:11.672Z,4.40
2022-09-04T11:20:18.107Z,4.10
2022-09-04T11:23:28.812Z,4.40
2022-09-04T11:26:47.256Z,4.50
2022-09-04T11:29:55.420Z,4.00
2022-09-04T11:32:42.745Z,4.60
2022-09-04T11:35:46.609Z,4.50
2022-09-04T11:38:43.189Z,5.10
2022-09-04T11:41:51.624Z,4.70
2022-09-04T11:44:53.826Z,4.70
2022-09-04T11:48:00.927Z,4.60
2022-09-04T11:50:52.298Z,4.90
2022-09-04T11:53:49.208Z,4.30
2022-09-04T11:56:54.091Z,4.70
2022-09-04T11:59:46.071Z,4.30
2022-09-04T12:02:45.609Z,4.30
2022-09-04T12:05:39.096Z,4.40
2022-09-04T12:08:29.691Z,4.60
2022-09-04T12:11:19.221Z,4.20
2022-09-04T12:14:04.541Z,4.00
2022-09-04T12:17:14.990Z,4.40
2022-09-04T12:20:23.606Z,4.60
2022-09-04T12:23:31.086Z,3.80
2022-09-04T12:26:51.942Z,4.20
2022-09-04T12:29:52.327Z,4.00
2022-09-04T12:33:08.598Z,3.80
2022-09-04T12:36:14.261Z,3.80
2022-09-04T12:39:08.790Z,3.70
2022-09-04T12:41:49.893Z,3.80
2022-09-04T12:44:31.952Z,3.90
2022-09-04T12:47:13.671Z,4.10
2022-09-04T12:50:17.942Z,4.00
2022-09-04T12:53:00.455Z,3.70
2022-09-04T12:55:38.863Z,3.90
2022-09-04T12:58:20.661Z,4.10
2022-09-04T13:00:55.922Z,3.70
2022-09-04T13:03:37.013Z,3.80
2022-09-04T13:06:20.812Z,3.90
2022-09-04T13:09:01.274Z,3.80
2022-09-04T13:11:45.255Z,4.10
2022-09-04T13:14:33.666Z,3.70
2022-09-04T13:17:17.223Z,4.00
2022-09-04T13:19:54.890Z,4.20
2022-09-04T13:22:33.811Z,4.00
2022-09-04T13:25:12.308Z,4.00
2022-09-04T13:27:56.904Z,4.10
2022-09-04T13:30:28.276Z,4.60
2022-09-04T13:33:40.292Z,4.60
2022-09-04T13:36:18.425Z,3.50
2022-09-04T13:39:16.112Z,3.80
2022-09-04T13:42:06.453Z,4.10
2022-09-04T13:44:59.655Z,4.10
2022-09-04T13:47:39.521Z,3.70
2022-09-04T13:50:16.758Z,3.90
2022-09-04T13:52:55.372Z,3.70
2022-09-04T13:55:27.532Z,3.60
2022-09-04T13:58:03.741Z,3.20
2022-09-04T14:00:35.354Z,3.40
2022-09-04T14:03:11.967Z,3.60
2022-09-04T14:05:41.339Z,3.10
2022-09-04T14:08:17.901Z,3.30
2022-09-04T14:11:06.253Z,3.20
2022-09-04T14:13:51.428Z,3.60
2022-09-04T14:16:23.320Z,4.00
2022-09-04T14:19:16.817Z,3.60
2022-09-04T14:22:15.154Z,3.20
2022-09-04T14:24:54.020Z,3.20
2022-09-04T14:27:38.998Z,3.10
2022-09-04T14:30:14.897Z,3.20
2022-09-04T14:33:07.457Z,3.40
2022-09-04T14:36:00.916Z,3.30
2022-09-04T14:38:56.049Z,3.10
2022-09-04T14:41:36.493Z,3.10
2022-09-04T14:44:18.198Z,3.00
2022-09-04T14:47:00.342Z,3.00
2022-09-04T14:49:31.162Z,3.40
2022-09-04T14:52:10.713Z,3.10
2022-09-04T14:54:46.055Z,3.30
2022-09-04T14:57:22.668Z,3.50
2022-09-04T15:00:03.349Z,3.20
2022-09-04T15:02:38.329Z,3.30
2022-09-04T15:05:20.028Z,3.10
2022-09-04T15:07:56.175Z,3.40
2022-09-04T15:10:47.053Z,3.00
2022-09-04T15:13:45.494Z,3.10
2022-09-04T15:16:21.600Z,3.30
2022-09-04T15:19:00.468Z,3.30
2022-09-04T15:21:43.185Z,3.20
2022-09-04T15:24:24.469Z,2.70
2022-09-04T15:27:03.115Z,2.80
2022-09-04T15:29:41.227Z,2.90
2022-09-04T15:34:43.693Z,3.00
2022-09-04T15:37:20.224Z,3.10
2022-09-04T15:40:01.170Z,3.20
2022-09-04T15:42:46.439Z,3.00
2022-09-04T15:45:24.789Z,2.80
2022-09-04T15:50:57.512Z,3.50
2022-09-04T15:56:29.366Z,2.80
2022-09-04T15:59:05.286Z,2.80
2022-09-04T16:01:44.761Z,2.70
2022-09-04T16:04:22.690Z,3.10
2022-09-04T16:06:57.527Z,3.00
2022-09-04T16:09:34.115Z,3.20
2022-09-04T16:12:10.841Z,3.50
2022-09-04T16:14:47.898Z,3.10
2022-09-04T16:17:24.840Z,3.50
2022-09-04T16:20:02.495Z,3.10
2022-09-04T16:22:39.529Z,3.00
2022-09-04T16:25:12.534Z,3.10
2022-09-04T16:27:49.857Z,3.00
2022-09-04T16:30:40.909Z,2.90
2022-09-04T16:33:27.709Z,2.80
2022-09-04T16:36:03.441Z,3.10
2022-09-04T16:38:51.972Z,2.90
2022-09-04T16:41:28.567Z,2.90
2022-09-04T16:44:23.896Z,2.90
2022-09-04T16:47:03.881Z,2.90
2022-09-04T16:49:40.726Z,2.90
2022-09-04T16:52:32.812Z,3.00
2022-09-04T16:55:11.920Z,2.80
2022-09-04T16:57:52.770Z,2.90
2022-09-04T17:00:23.681Z,2.70
2022-09-04T17:02:58.922Z,3.30
2022-09-04T17:05:35.462Z,3.10
2022-09-04T17:08:14.307Z,2.60
2022-09-04T17:11:08.873Z,3.40
2022-09-04T17:13:44.691Z,2.90
2022-09-04T17:16:19.338Z,2.80
2022-09-04T17:18:56.103Z,3.10
2022-09-04T17:26:00.899Z,3.00
2022-09-04T17:29:14.175Z,2.80
2022-09-04T17:29:17.544Z,3.30
2022-09-04T17:36:56.793Z,3.00
2022-09-04T17:40:42.935Z,2.80
2022-09-04T17:40:47.895Z,3.10
2022-09-04T17:42:09.971Z,3.30
2022-09-04T17:44:50.072Z,3.10
2022-09-04T17:47:32.143Z,3.40
2022-09-04T17:50:10.436Z,3.80
2022-09-04T17:52:57.883Z,3.30
2022-09-04T17:55:39.132Z,4.00
2022-09-04T17:58:31.398Z,4.00
2022-09-04T18:01:15.302Z,3.70
2022-09-04T18:04:19.778Z,4.20
2022-09-04T18:06:57.502Z,4.40
2022-09-04T18:09:36.013Z,4.10
2022-09-04T18:12:16.065Z,4.10
2022-09-04T18:15:32.493Z,4.40
2022-09-04T18:17:57.111Z,4.10
2022-09-04T18:20:37.373Z,4.10
2022-09-04T18:23:51.019Z,4.10
2022-09-04T18:26:40.530Z,4.00
2022-09-04T18:34:41.251Z,4.10
2022-09-04T18:37:20.595Z,4.20
2022-09-04T18:37:24.551Z,4.20
2022-09-04T18:39:08.165Z,4.40
2022-09-04T18:50:24.568Z,3.90
2022-09-04T18:50:28.449Z,4.40
2022-09-04T18:50:50.080Z,4.30
2022-09-04T18:53:55.412Z,4.40
2022-09-04T18:56:30.955Z,4.60
2022-09-04T18:59:05.911Z,4.10
2022-09-04T19:01:43.939Z,4.60
2022-09-04T19:04:45.017Z,4.40
2022-09-04T19:07:31.450Z,3.90
2022-09-04T19:10:13.973Z,4.40
2022-09-04T19:13:09.550Z,4.50
2022-09-04T19:15:58.411Z,4.50
2022-09-04T19:18:41.338Z,4.40
2022-09-04T19:21:27.240Z,4.40
2022-09-04T19:24:09.380Z,4.30
2022-09-04T19:26:45.421Z,4.30
2022-09-04T19:29:21.944Z,4.60
2022-09-04T19:31:57.780Z,4.80
2022-09-04T19:34:42.173Z,4.80
2022-09-04T19:40:01.956Z,4.20
2022-09-04T19:45:56.309Z,4.90
2022-09-04T19:46:15.052Z,4.90
2022-09-04T19:46:27.702Z,4.60
2022-09-04T19:49:54.281Z,5.10
2022-09-04T19:53:24.321Z,4.80
2022-09-04T19:55:24.417Z,2.30
2022-09-04T19:58:06.375Z,1.60
2022-09-04T20:00:43.629Z,1.50
2022-09-04T20:03:30.070Z,1.60
2022-09-04T20:06:20.151Z,2.10
2022-09-04T20:09:04.990Z,3.40
2022-09-04T20:11:55.220Z,2.90
2022-09-04T20:14:42.882Z,2.80
2022-09-04T20:17:30.352Z,3.40
2022-09-04T20:20:05.498Z,3.50
2022-09-04T20:22:45.067Z,3.10
2022-09-04T20:25:27.038Z,5.00
2022-09-04T20:28:08.271Z,3.90
2022-09-04T20:30:43.352Z,3.40
2022-09-04T20:33:19.173Z,4.90
2022-09-04T20:35:53.318Z,4.90
2022-09-04T20:38:30.176Z,4.90
2022-09-04T20:41:08.663Z,5.10
2022-09-04T20:43:48.820Z,5.20
2022-09-04T20:52:42.793Z,4.90
2022-09-04T20:52:53.680Z,5.20
2022-09-04T20:53:07.911Z,5.10
2022-09-04T20:55:46.089Z,5.20
2022-09-04T21:03:11.155Z,4.90
2022-09-04T21:03:13.055Z,5.20
2022-09-04T21:04:43.365Z,5.10
2022-09-04T21:07:23.054Z,5.30
2022-09-04T21:10:08.141Z,5.10
2022-09-04T21:12:47.320Z,5.30
2022-09-04T21:15:35.935Z,5.30
2022-09-04T21:18:19.467Z,5.00
2022-09-04T21:21:25.689Z,5.70
2022-09-04T21:24:37.756Z,5.50
2022-09-04T21:27:22.361Z,5.90
2022-09-04T21:30:05.341Z,5.90
2022-09-04T21:33:21.499Z,5.80
2022-09-04T21:36:25.390Z,5.50
2022-09-04T21:39:18.754Z,5.30
2022-09-04T21:42:21.827Z,5.70
2022-09-04T21:45:12.036Z,6.70
2022-09-04T21:48:03.000Z,6.90
2022-09-04T21:50:54.594Z,6.80
2022-09-04T21:54:34.647Z,9.20
2022-09-04T22:02:30.298Z,8.70
2022-09-04T22:02:45.675Z,9.00
2022-09-04T22:03:46.557Z,9.40
2022-09-04T22:07:20.880Z,8.80
2022-09-04T22:13:26.709Z,8.30
2022-09-04T22:13:41.293Z,9.10
2022-09-04T22:15:25.044Z,10.50
2022-09-04T22:18:09.722Z,9.30
2022-09-04T22:20:56.259Z,8.80
2022-09-04T22:23:58.969Z,8.60
2022-09-04T22:27:14.575Z,8.90
2022-09-04T22:30:04.473Z,9.60
2022-09-04T22:33:05.119Z,8.40
2022-09-04T22:36:14.253Z,9.30
2022-09-04T22:39:02.436Z,9.40
2022-09-04T22:44:30.385Z,10.20
2022-09-04T22:47:28.717Z,10.90
2022-09-04T22:50:49.767Z,9.80
2022-09-04T22:53:54.191Z,11.00
2022-09-04T22:56:43.053Z,12.90
2022-09-04T22:59:35.966Z,12.40
2022-09-04T23:02:55.420Z,13.00
2022-09-04T23:07:35.384Z,12.00
2022-09-04T23:13:47.245Z,12.00
2022-09-04T23:13:57.220Z,12.30
2022-09-04T23:26:31.076Z,12.70
2022-09-04T23:26:32.847Z,13.90
2022-09-04T23:26:49.804Z,13.60
2022-09-04T23:28:28.267Z,13.40
2022-09-04T23:31:27.158Z,14.00
2022-09-04T23:34:40.065Z,13.90
2022-09-04T23:38:00.278Z,14.90
2022-09-04T23:40:50.567Z,15.00
2022-09-04T23:44:25.372Z,15.00
2022-09-04T23:47:48.046Z,14.30
2022-09-04T23:50:50.280Z,14.60
2022-09-04T23:53:47.992Z,15.50
2022-09-04T23:56:43.064Z,16.40
2022-09-04T23:59:47.161Z,16.10
